createdAt,value
2018-06-24T00:01:59.992Z,67.90
2018-06-24T00:04:29.900Z,67.70
2018-06-24T00:06:59.642Z,67.90
2018-06-24T00:09:29.318Z,68.70
2018-06-24T00:11:59.005Z,68.80
2018-06-24T00:14:35.726Z,69.00
2018-06-24T00:17:05.411Z,69.30
2018-06-24T00:19:35.098Z,68.30
2018-06-24T00:22:04.795Z,69.30
2018-06-24T00:24:34.466Z,69.40
2018-06-24T00:27:04.164Z,69.30
2018-06-24T00:29:33.843Z,69.30
2018-06-24T00:32:03.490Z,69.40
2018-06-24T00:34:33.155Z,69.20
2018-06-24T00:37:02.831Z,69.60
2018-06-24T00:39:32.749Z,69.10
2018-06-24T00:42:02.736Z,69.30
2018-06-24T00:44:32.407Z,69.60
2018-06-24T00:47:02.071Z,69.30
2018-06-24T00:49:31.766Z,69.20
2018-06-24T00:52:01.424Z,69.30
2018-06-24T00:54:31.091Z,69.20
2018-06-24T00:57:00.765Z,68.80
2018-06-24T00:59:41.898Z,69.00
2018-06-24T01:02:11.556Z,69.50
2018-06-24T01:04:41.247Z,69.80
2018-06-24T01:07:10.902Z,69.40
2018-06-24T01:09:40.569Z,69.30
2018-06-24T01:12:10.250Z,69.60
2018-06-24T01:17:09.187Z,69.90
2018-06-24T01:19:38.895Z,69.50
2018-06-24T01:22:08.547Z,69.00
2018-06-24T01:24:38.214Z,69.20
2018-06-24T01:27:07.946Z,69.60
2018-06-24T01:29:37.615Z,69.20
2018-06-24T01:32:07.282Z,69.40
2018-06-24T01:34:37.194Z,69.40
2018-06-24T01:37:06.839Z,70.00
2018-06-24T01:39:36.518Z,69.70
2018-06-24T01:42:06.210Z,70.10
2018-06-24T01:44:35.893Z,70.20
2018-06-24T01:47:05.929Z,69.70
2018-06-24T01:49:35.602Z,70.70
2018-06-24T01:52:05.302Z,70.70
2018-06-24T01:54:34.979Z,70.70
2018-06-24T01:57:04.674Z,71.30
2018-06-24T01:59:34.357Z,70.90
2018-06-24T02:02:04.041Z,71.40
2018-06-24T02:04:33.742Z,71.80
2018-06-24T02:07:03.424Z,71.00
2018-06-24T02:09:33.114Z,70.80
2018-06-24T02:12:02.770Z,70.60
2018-06-24T02:14:32.442Z,70.80
2018-06-24T02:17:02.139Z,70.80
2018-06-24T02:19:31.811Z,71.60
2018-06-24T02:22:01.479Z,71.50
2018-06-24T02:24:31.156Z,70.70
2018-06-24T02:27:00.815Z,71.00
2018-06-24T02:29:30.478Z,71.00
2018-06-24T02:32:00.366Z,70.80
2018-06-24T02:34:30.055Z,71.20
2018-06-24T02:36:59.938Z,71.00
2018-06-24T02:39:29.847Z,70.40
2018-06-24T02:41:59.562Z,70.90
2018-06-24T02:44:29.226Z,71.00
2018-06-24T02:46:58.892Z,71.20
2018-06-24T02:49:28.563Z,71.90
2018-06-24T02:51:58.263Z,72.10
2018-06-24T02:54:27.915Z,71.60
2018-06-24T02:56:57.598Z,71.10
2018-06-24T02:59:27.295Z,72.00
2018-06-24T03:01:56.979Z,71.50
2018-06-24T03:04:26.647Z,72.00
2018-06-24T03:06:56.302Z,72.20
2018-06-24T03:09:26.027Z,71.10
2018-06-24T03:11:55.719Z,71.80
2018-06-24T03:14:25.375Z,71.80
2018-06-24T03:16:55.082Z,72.20
2018-06-24T03:19:24.739Z,72.60
2018-06-24T03:21:54.416Z,72.50
2018-06-24T03:24:24.064Z,72.60
2018-06-24T03:26:53.739Z,72.30
2018-06-24T03:31:52.659Z,73.60
2018-06-24T03:34:22.315Z,72.80
2018-06-24T03:36:51.994Z,72.30
2018-06-24T03:39:21.663Z,72.10
2018-06-24T03:41:51.354Z,72.50
2018-06-24T03:44:21.011Z,72.50
2018-06-24T03:46:50.695Z,73.00
2018-06-24T03:49:20.350Z,73.40
2018-06-24T03:51:50.059Z,73.80
2018-06-24T03:54:19.686Z,72.50
2018-06-24T03:56:49.378Z,72.30
2018-06-24T03:59:19.010Z,72.80
2018-06-24T04:01:48.678Z,72.10
2018-06-24T04:04:18.345Z,72.00
2018-06-24T04:06:48.007Z,71.30
2018-06-24T04:09:17.636Z,71.30
2018-06-24T04:11:47.302Z,72.00
2018-06-24T04:14:16.939Z,71.50
2018-06-24T04:16:46.606Z,71.70
2018-06-24T04:19:16.263Z,72.10
2018-06-24T04:21:45.931Z,71.90
2018-06-24T04:24:15.582Z,71.50
2018-06-24T04:26:45.258Z,72.10
2018-06-24T04:29:14.899Z,72.20
2018-06-24T04:31:44.579Z,72.40
2018-06-24T04:34:14.234Z,72.40
2018-06-24T04:36:43.902Z,72.10
2018-06-24T04:39:13.534Z,72.10
2018-06-24T04:41:43.189Z,72.00
2018-06-24T04:44:12.835Z,72.40
2018-06-24T04:46:42.486Z,72.70
2018-06-24T04:49:12.474Z,71.90
2018-06-24T04:51:42.167Z,72.70
2018-06-24T04:54:12.009Z,72.50
2018-06-24T04:56:42.126Z,72.30
2018-06-24T04:59:11.771Z,71.80
2018-06-24T05:01:41.470Z,71.40
2018-06-24T05:04:11.169Z,70.80
2018-06-24T05:06:40.867Z,70.60
2018-06-24T05:09:10.982Z,70.90
2018-06-24T05:11:40.711Z,70.10
2018-06-24T05:14:10.395Z,70.20
2018-06-24T05:16:40.092Z,70.50
2018-06-24T05:19:09.826Z,70.70
2018-06-24T05:21:39.486Z,70.00
2018-06-24T05:24:09.172Z,69.30
2018-06-24T05:26:38.809Z,69.30
2018-06-24T05:29:08.482Z,69.10
2018-06-24T05:31:38.135Z,68.20
2018-06-24T05:34:07.863Z,68.00
2018-06-24T05:36:37.526Z,67.00
2018-06-24T05:39:09.575Z,66.10
2018-06-24T05:41:39.233Z,65.70
2018-06-24T05:44:08.958Z,66.10
2018-06-24T05:46:38.971Z,66.70
2018-06-24T05:49:08.651Z,66.00
2018-06-24T05:51:38.311Z,64.90
2018-06-24T05:54:07.979Z,64.50
2018-06-24T05:56:37.638Z,64.40
2018-06-24T05:59:07.311Z,62.70
2018-06-24T06:01:36.983Z,62.10
2018-06-24T06:04:06.663Z,62.80
2018-06-24T06:06:36.325Z,62.80
2018-06-24T06:09:10.129Z,61.60
2018-06-24T06:11:40.055Z,62.30
2018-06-24T06:14:10.084Z,61.70
2018-06-24T06:16:39.772Z,58.70
2018-06-24T06:19:09.443Z,58.30
2018-06-24T06:21:39.093Z,57.90
2018-06-24T06:24:10.150Z,58.50
2018-06-24T06:26:39.987Z,59.00
2018-06-24T06:29:10.306Z,58.50
2018-06-24T06:31:39.951Z,57.90
2018-06-24T06:34:09.617Z,58.60
2018-06-24T06:36:39.325Z,58.10
2018-06-24T06:39:10.191Z,56.90
2018-06-24T06:41:39.859Z,56.00
2018-06-24T06:44:09.552Z,55.40
2018-06-24T06:46:39.197Z,54.00
2018-06-24T06:49:09.487Z,54.70
2018-06-24T06:51:39.159Z,55.00
2018-06-24T06:54:08.835Z,55.20
2018-06-24T06:56:38.474Z,53.80
2018-06-24T06:59:08.110Z,53.10
2018-06-24T07:01:37.770Z,53.50
2018-06-24T07:04:07.794Z,52.50
2018-06-24T07:06:37.559Z,52.10
2018-06-24T07:09:09.202Z,53.90
2018-06-24T07:11:39.459Z,52.10
2018-06-24T07:14:09.145Z,52.10
2018-06-24T07:16:38.861Z,51.70
2018-06-24T07:19:10.463Z,51.20
2018-06-24T07:21:40.270Z,51.30
2018-06-24T07:24:11.254Z,50.00
2018-06-24T07:26:41.221Z,51.00
2018-06-24T07:34:09.442Z,51.00
2018-06-24T07:36:39.190Z,51.70
2018-06-24T07:39:10.217Z,51.40
2018-06-24T07:41:40.068Z,51.10
2018-06-24T07:44:10.118Z,51.10
2018-06-24T07:46:39.782Z,51.00
2018-06-24T07:49:09.470Z,52.40
2018-06-24T07:51:39.198Z,51.50
2018-06-24T07:54:08.867Z,51.80
2018-06-24T07:56:38.606Z,51.50
2018-06-24T07:59:08.324Z,51.60
2018-06-24T08:01:38.011Z,49.20
2018-06-24T08:04:07.707Z,49.50
2018-06-24T08:06:42.103Z,49.50
2018-06-24T08:09:12.693Z,51.20
2018-06-24T08:11:42.722Z,51.00
2018-06-24T08:14:12.362Z,51.20
2018-06-24T08:16:42.442Z,50.60
2018-06-24T08:19:12.079Z,51.20
2018-06-24T08:21:41.822Z,50.10
2018-06-24T08:24:11.600Z,50.60
2018-06-24T08:26:41.346Z,49.00
2018-06-24T08:29:11.403Z,49.90
2018-06-24T08:31:41.162Z,49.40
2018-06-24T08:34:10.988Z,48.90
2018-06-24T08:36:40.730Z,48.80
2018-06-24T08:39:11.388Z,49.90
2018-06-24T08:41:41.070Z,48.60
2018-06-24T08:44:10.774Z,46.50
2018-06-24T08:46:40.516Z,46.30
2018-06-24T08:49:09.901Z,46.60
2018-06-24T08:51:39.628Z,44.80
2018-06-24T08:54:09.263Z,47.40
2018-06-24T08:56:38.930Z,46.50
2018-06-24T08:59:08.574Z,46.90
2018-06-24T09:01:38.262Z,46.20
2018-06-24T09:04:08.490Z,46.30
2018-06-24T09:06:38.182Z,46.70
2018-06-24T09:09:09.831Z,47.50
2018-06-24T09:11:39.519Z,48.90
2018-06-24T09:14:09.215Z,49.50
2018-06-24T09:16:38.878Z,48.30
2018-06-24T09:19:08.546Z,47.10
2018-06-24T09:21:38.244Z,47.40
2018-06-24T09:24:08.158Z,48.00
2018-06-24T09:26:37.842Z,47.30
2018-06-24T09:29:07.507Z,47.20
2018-06-24T09:31:37.647Z,45.70
2018-06-24T09:34:07.588Z,46.20
2018-06-24T09:39:09.508Z,47.40
2018-06-24T09:41:39.185Z,46.50
2018-06-24T09:44:08.862Z,47.60
2018-06-24T09:46:38.543Z,47.10
2018-06-24T09:49:08.230Z,47.40
2018-06-24T09:51:38.255Z,46.10
2018-06-24T09:54:07.954Z,46.50
2018-06-24T09:56:37.679Z,46.50
2018-06-24T09:59:07.417Z,46.00
2018-06-24T10:01:37.231Z,46.40
2018-06-24T10:04:07.323Z,47.70
2018-06-24T10:06:36.989Z,46.30
2018-06-24T10:09:09.594Z,48.30
2018-06-24T10:11:39.288Z,45.20
2018-06-24T10:14:09.415Z,45.70
2018-06-24T10:16:39.159Z,46.10
2018-06-24T10:19:08.862Z,45.10
2018-06-24T10:21:38.594Z,45.90
2018-06-24T10:24:08.315Z,48.00
2018-06-24T10:26:37.966Z,45.40
2018-06-24T10:29:08.421Z,46.20
2018-06-24T10:31:38.088Z,46.30
2018-06-24T10:34:08.845Z,46.90
2018-06-24T10:36:38.617Z,47.00
2018-06-24T10:39:10.415Z,46.40
2018-06-24T10:41:40.100Z,46.20
2018-06-24T10:44:10.015Z,44.80
2018-06-24T10:46:39.667Z,45.10
2018-06-24T10:49:09.371Z,44.60
2018-06-24T10:51:39.118Z,43.60
2018-06-24T10:54:08.822Z,43.90
2018-06-24T10:56:38.567Z,42.90
2018-06-24T10:59:08.242Z,42.00
2018-06-24T11:01:37.898Z,42.60
2018-06-24T11:04:07.967Z,43.30
2018-06-24T11:06:37.719Z,42.60
2018-06-24T11:09:09.695Z,42.70
2018-06-24T11:11:39.619Z,43.70
2018-06-24T11:14:09.331Z,43.70
2018-06-24T11:16:39.023Z,45.40
2018-06-24T11:19:09.156Z,44.60
2018-06-24T11:21:38.863Z,45.10
2018-06-24T11:24:08.914Z,45.00
2018-06-24T11:26:38.947Z,45.20
2018-06-24T11:29:08.639Z,44.60
2018-06-24T11:31:38.354Z,45.50
2018-06-24T11:34:08.083Z,45.30
2018-06-24T11:36:37.775Z,45.30
2018-06-24T11:39:09.208Z,46.00
2018-06-24T11:41:39.090Z,47.10
2018-06-24T11:44:09.151Z,46.40
2018-06-24T11:46:38.943Z,46.40
2018-06-24T11:49:08.652Z,46.40
2018-06-24T11:51:38.423Z,46.60
2018-06-24T11:54:08.142Z,46.80
2018-06-24T11:56:37.806Z,45.70
2018-06-24T11:59:07.513Z,46.80
2018-06-24T12:01:37.243Z,45.60
2018-06-24T12:04:07.017Z,47.00
2018-06-24T12:06:36.842Z,46.80
2018-06-24T12:09:09.620Z,47.20
2018-06-24T12:11:39.305Z,47.10
2018-06-24T12:14:09.019Z,48.10
2018-06-24T12:16:38.691Z,47.90
2018-06-24T12:19:08.403Z,48.10
2018-06-24T12:21:38.060Z,48.20
2018-06-24T12:24:07.760Z,48.40
2018-06-24T12:26:37.465Z,48.40
2018-06-24T12:29:07.150Z,48.50
2018-06-24T12:31:36.827Z,47.30
2018-06-24T12:34:06.536Z,47.70
2018-06-24T12:36:41.758Z,48.30
2018-06-24T12:39:16.394Z,48.60
2018-06-24T12:41:46.093Z,48.40
2018-06-24T12:44:15.774Z,48.40
2018-06-24T12:46:45.453Z,48.30
2018-06-24T12:49:15.115Z,48.80
2018-06-24T12:51:45.135Z,48.80
2018-06-24T12:54:14.810Z,48.60
2018-06-24T12:56:44.459Z,48.60
2018-06-24T12:59:14.427Z,49.20
2018-06-24T13:01:44.002Z,49.40
2018-06-24T13:04:13.747Z,49.10
2018-06-24T13:06:43.435Z,48.30
2018-06-24T13:09:13.147Z,48.40
2018-06-24T13:11:42.826Z,48.80
2018-06-24T13:14:12.895Z,48.40
2018-06-24T13:16:43.125Z,48.80
2018-06-24T13:19:12.819Z,49.70
2018-06-24T13:21:42.551Z,49.60
2018-06-24T13:24:12.302Z,48.80
2018-06-24T13:26:42.004Z,48.60
2018-06-24T13:29:11.706Z,48.60
2018-06-24T13:31:41.514Z,47.80
2018-06-24T13:34:11.240Z,49.00
2018-06-24T13:36:41.026Z,48.80
2018-06-24T13:39:11.538Z,48.10
2018-06-24T13:41:41.250Z,48.70
2018-06-24T13:44:10.951Z,48.20
2018-06-24T13:46:41.862Z,47.60
2018-06-24T13:49:11.641Z,48.10
2018-06-24T13:51:41.344Z,47.60
2018-06-24T13:54:11.127Z,48.50
2018-06-24T13:56:41.175Z,49.20
2018-06-24T13:59:11.218Z,49.30
2018-06-24T14:01:40.943Z,49.40
2018-06-24T14:04:10.615Z,49.10
2018-06-24T14:06:40.478Z,49.50
2018-06-24T14:09:12.155Z,47.60
2018-06-24T14:11:41.867Z,48.40
2018-06-24T14:16:41.366Z,49.40
2018-06-24T14:19:11.050Z,49.40
2018-06-24T14:21:40.723Z,48.80
2018-06-24T14:24:10.391Z,48.00
2018-06-24T14:26:40.115Z,48.00
2018-06-24T14:29:09.819Z,48.10
2018-06-24T14:31:39.507Z,48.30
2018-06-24T14:34:09.526Z,48.60
2018-06-24T14:36:39.554Z,49.20
2018-06-24T14:39:10.802Z,50.10
2018-06-24T14:41:41.154Z,50.80
2018-06-24T14:44:10.867Z,50.20
2018-06-24T14:46:40.587Z,50.00
2018-06-24T14:49:10.268Z,47.80
2018-06-24T14:51:39.963Z,47.40
2018-06-24T14:54:09.619Z,48.00
2018-06-24T14:56:40.158Z,48.10
2018-06-24T14:59:10.291Z,48.40
2018-06-24T15:01:40.372Z,47.70
2018-06-24T15:04:10.255Z,47.60
2018-06-24T15:06:39.967Z,48.60
2018-06-24T15:09:11.799Z,47.70
2018-06-24T15:11:41.840Z,47.50
2018-06-24T15:14:12.202Z,47.90
2018-06-24T15:16:41.923Z,48.20
2018-06-24T15:19:11.838Z,48.00
2018-06-24T15:21:42.232Z,47.80
2018-06-24T15:24:11.872Z,47.30
2018-06-24T15:26:41.555Z,46.20
2018-06-24T15:29:11.326Z,46.80
2018-06-24T15:31:41.662Z,47.20
2018-06-24T15:34:11.588Z,46.20
2018-06-24T15:36:41.321Z,47.60
2018-06-24T15:39:12.252Z,46.60
2018-06-24T15:41:42.372Z,46.80
2018-06-24T15:44:13.763Z,47.10
2018-06-24T15:46:43.491Z,46.10
2018-06-24T15:49:13.515Z,45.30
2018-06-24T15:51:43.219Z,46.20
2018-06-24T15:54:12.874Z,47.30
2018-06-24T15:56:42.649Z,46.70
2018-06-24T15:59:12.663Z,46.70
2018-06-24T16:01:42.367Z,46.20
2018-06-24T16:04:12.064Z,45.60
2018-06-24T16:06:41.801Z,47.00
2018-06-24T16:09:12.755Z,46.10
2018-06-24T16:11:42.427Z,45.80
2018-06-24T16:14:12.481Z,45.50
2018-06-24T16:16:42.207Z,45.70
2018-06-24T16:19:11.928Z,44.80
2018-06-24T16:21:41.616Z,44.90
2018-06-24T16:24:12.245Z,44.50
2018-06-24T16:26:41.905Z,45.90
2018-06-24T16:29:11.598Z,45.60
2018-06-24T16:31:42.210Z,46.00
2018-06-24T16:34:11.915Z,45.80
2018-06-24T16:36:41.592Z,44.50
2018-06-24T16:39:12.662Z,45.90
2018-06-24T16:41:42.542Z,45.10
2018-06-24T16:44:12.284Z,45.30
2018-06-24T16:46:42.308Z,45.80
2018-06-24T16:49:12.031Z,46.30
2018-06-24T16:51:41.742Z,45.50
2018-06-24T16:54:11.429Z,45.90
2018-06-24T16:56:41.168Z,47.20
2018-06-24T16:59:11.050Z,47.40
2018-06-24T17:01:40.727Z,47.20
2018-06-24T17:04:10.451Z,47.10
2018-06-24T17:06:40.251Z,47.30
2018-06-24T17:09:10.690Z,47.20
2018-06-24T17:11:40.435Z,47.40
2018-06-24T17:14:10.143Z,47.90
2018-06-24T17:16:40.723Z,47.10
2018-06-24T17:19:10.477Z,47.30
2018-06-24T17:21:40.713Z,47.70
2018-06-24T17:24:10.439Z,47.50
2018-06-24T17:26:40.139Z,47.40
2018-06-24T17:29:09.843Z,47.70
2018-06-24T17:31:39.533Z,47.50
2018-06-24T17:34:09.242Z,47.50
2018-06-24T17:36:38.921Z,48.00
2018-06-24T17:39:10.579Z,47.90
2018-06-24T17:41:40.587Z,48.30
2018-06-24T17:44:10.631Z,48.60
2018-06-24T17:46:40.307Z,48.90
2018-06-24T17:49:10.045Z,49.20
2018-06-24T17:51:39.710Z,49.40
2018-06-24T17:54:09.407Z,50.10
2018-06-24T17:56:39.109Z,50.20
2018-06-24T17:59:08.835Z,50.40
2018-06-24T18:01:38.679Z,49.50
2018-06-24T18:04:08.418Z,50.00
2018-06-24T18:06:38.161Z,50.10
2018-06-24T18:09:09.683Z,49.90
2018-06-24T18:11:40.095Z,50.10
2018-06-24T18:14:10.941Z,50.20
2018-06-24T18:16:40.624Z,50.30
2018-06-24T18:19:10.650Z,50.70
2018-06-24T18:21:40.411Z,50.60
2018-06-24T18:24:10.126Z,50.80
2018-06-24T18:26:39.876Z,50.80
2018-06-24T18:29:09.573Z,50.90
2018-06-24T18:31:39.254Z,51.20
2018-06-24T18:34:08.943Z,51.30
2018-06-24T18:36:38.656Z,51.20
2018-06-24T18:39:09.632Z,51.40
2018-06-24T18:41:39.488Z,51.70
2018-06-24T18:44:09.291Z,52.40
2018-06-24T18:46:38.966Z,52.00
2018-06-24T18:49:08.628Z,52.10
2018-06-24T18:51:38.355Z,52.20
2018-06-24T18:54:08.419Z,52.50
2018-06-24T18:56:38.123Z,52.60
2018-06-24T18:59:10.040Z,53.10
2018-06-24T19:01:39.851Z,52.90
2018-06-24T19:04:09.706Z,53.40
2018-06-24T19:06:39.436Z,54.00
2018-06-24T19:09:12.070Z,53.80
2018-06-24T19:11:45.282Z,53.10
2018-06-24T19:14:15.602Z,53.20
2018-06-24T19:16:56.232Z,53.20
2018-06-24T19:19:27.752Z,52.90
2018-06-24T19:22:04.143Z,53.70
2018-06-24T19:24:33.803Z,54.10
2018-06-24T19:27:09.804Z,54.20
2018-06-24T19:29:45.264Z,54.40
2018-06-24T19:32:14.983Z,54.70
2018-06-24T19:34:47.509Z,54.70
2018-06-24T19:37:18.407Z,54.80
2018-06-24T19:39:48.123Z,55.00
2018-06-24T19:42:17.807Z,54.90
2018-06-24T19:44:47.962Z,55.10
2018-06-24T19:47:17.907Z,55.40
2018-06-24T19:49:51.208Z,55.40
2018-06-24T19:52:21.362Z,55.50
2018-06-24T19:54:54.732Z,55.40
2018-06-24T19:57:24.991Z,55.50
2018-06-24T19:59:57.315Z,55.60
2018-06-24T20:02:27.002Z,55.90
2018-06-24T20:04:56.679Z,56.00
2018-06-24T20:07:29.231Z,56.70
2018-06-24T20:09:59.126Z,56.00
2018-06-24T20:12:29.546Z,55.80
2018-06-24T20:15:01.111Z,55.80
2018-06-24T20:17:30.810Z,56.00
2018-06-24T20:20:00.492Z,56.00
2018-06-24T20:22:30.318Z,56.80
2018-06-24T20:25:03.657Z,56.60
2018-06-24T20:27:34.326Z,56.90
2018-06-24T20:30:04.689Z,56.40
2018-06-24T20:32:34.795Z,56.40
2018-06-24T20:35:04.865Z,56.30
2018-06-24T20:37:35.754Z,56.80
2018-06-24T20:40:05.727Z,56.80
2018-06-24T20:42:35.599Z,57.00
2018-06-24T20:45:05.902Z,56.80
2018-06-24T20:47:36.331Z,56.70
2018-06-24T20:50:06.054Z,57.30
2018-06-24T20:52:35.891Z,57.20
2018-06-24T20:55:05.570Z,56.60
2018-06-24T20:57:35.291Z,57.30
2018-06-24T21:00:05.698Z,56.70
2018-06-24T21:02:35.512Z,57.30
2018-06-24T21:05:07.425Z,57.10
2018-06-24T21:07:37.146Z,57.10
2018-06-24T21:10:06.866Z,57.10
2018-06-24T21:12:36.524Z,58.00
2018-06-24T21:15:06.370Z,57.30
2018-06-24T21:17:36.062Z,58.10
2018-06-24T21:20:05.805Z,57.50
2018-06-24T21:22:35.610Z,57.60
2018-06-24T21:25:06.276Z,58.30
2018-06-24T21:27:36.051Z,58.40
2018-06-24T21:30:05.783Z,57.90
2018-06-24T21:32:35.465Z,58.00
2018-06-24T21:35:05.674Z,58.10
2018-06-24T21:37:35.363Z,58.10
2018-06-24T21:40:05.691Z,58.20
2018-06-24T21:42:35.395Z,58.50
2018-06-24T21:45:05.562Z,58.80
2018-06-24T21:47:35.326Z,59.10
2018-06-24T21:50:05.069Z,59.20
2018-06-24T21:52:34.782Z,59.30
2018-06-24T21:55:04.565Z,59.40
2018-06-24T21:57:34.453Z,59.50
2018-06-24T22:00:05.966Z,59.70
2018-06-24T22:02:35.999Z,59.80
2018-06-24T22:05:06.054Z,59.90
2018-06-24T22:07:36.259Z,60.00
2018-06-24T22:10:06.159Z,59.70
2018-06-24T22:12:35.855Z,59.80
2018-06-24T22:15:05.596Z,59.80
2018-06-24T22:17:35.255Z,59.80
2018-06-24T22:20:05.032Z,59.90
2018-06-24T22:22:34.703Z,60.00
2018-06-24T22:25:04.442Z,60.10
2018-06-24T22:27:34.127Z,60.20
2018-06-24T22:30:04.650Z,60.30
2018-06-24T22:32:34.417Z,60.40
2018-06-24T22:35:04.147Z,60.50
2018-06-24T22:37:34.147Z,60.60
2018-06-24T22:40:03.938Z,60.50
2018-06-24T22:42:33.597Z,60.50
2018-06-24T22:45:03.691Z,60.70
2018-06-24T22:47:33.377Z,60.70
2018-06-24T22:50:03.132Z,60.90
2018-06-24T22:52:32.813Z,60.80
2018-06-24T22:55:02.556Z,60.70
2018-06-24T22:57:32.208Z,60.80
2018-06-24T23:00:07.607Z,60.90
2018-06-24T23:02:37.814Z,61.00
2018-06-24T23:05:07.951Z,60.70
2018-06-24T23:07:37.842Z,60.70
2018-06-24T23:10:07.531Z,60.70
2018-06-24T23:12:37.223Z,60.60
2018-06-24T23:15:08.027Z,60.70
2018-06-24T23:17:37.820Z,60.70
2018-06-24T23:20:08.359Z,60.70
2018-06-24T23:22:38.051Z,60.80
2018-06-24T23:25:07.759Z,60.80
2018-06-24T23:27:37.429Z,60.70
2018-06-24T23:30:07.513Z,61.30
2018-06-24T23:32:37.220Z,60.60
2018-06-24T23:35:07.052Z,60.40
2018-06-24T23:37:36.743Z,60.50
2018-06-24T23:40:06.809Z,60.40
2018-06-24T23:42:36.478Z,60.20
2018-06-24T23:45:06.269Z,60.50
2018-06-24T23:47:36.260Z,60.30
2018-06-24T23:50:05.966Z,60.50
2018-06-24T23:52:35.650Z,60.60
2018-06-24T23:55:06.025Z,60.60
2018-06-24T23:57:35.698Z,61.10
